Time;durP1;ratioP1;P1;durP2;ratioP2;P2;SDS_P1;SDS_P2;PMS_P1;PMS_P2;Temp;Humidity;BMP_temperature;BMP_pressure;BME280_temperature;BME280_humidity;BME280_pressure;Samples;Min_cycle;Max_cycle;Signal;HPM_P1;HPM_P2
2023/04/24 00:00:46;;;;;;;5.40;1.00;;;;;;;;;;4990766;28;20092;-66
2023/04/24 00:03:12;;;;;;;2.70;0.73;;;;;;;;;;4987150;28;20442;-66
2023/04/24 00:05:40;;;;;;;1.08;0.70;;;;;;;;;;4993307;28;20661;-66
2023/04/24 00:08:05;;;;;;;1.33;0.90;;;;;;;;;;4956996;28;20046;-66
2023/04/24 00:10:31;;;;;;;2.38;0.85;;;;;;;;;;4985451;28;20041;-66
2023/04/24 00:12:57;;;;;;;0.90;0.80;;;;;;;;;;4989423;28;20026;-66
2023/04/24 00:15:22;;;;;;;1.42;0.77;;;;;;;;;;4989869;28;20049;-66
2023/04/24 00:17:47;;;;;;;1.85;0.70;;;;;;;;;;5005284;28;20061;-66
2023/04/24 00:20:14;;;;;;;0.68;0.68;;;;;;;;;;4982261;28;20541;-66
2023/04/24 00:22:40;;;;;;;1.65;0.77;;;;;;;;;;4974878;28;20064;-66
2023/04/24 00:25:05;;;;;;;0.70;0.70;;;;;;;;;;4984782;28;20081;-66
2023/04/24 00:27:32;;;;;;;0.88;0.82;;;;;;;;;;4988656;28;20041;-66
2023/04/24 00:29:57;;;;;;;1.70;0.98;;;;;;;;;;5001671;28;20034;-66
2023/04/24 00:32:22;;;;;;;1.67;1.00;;;;;;;;;;4987952;28;20120;-66
2023/04/24 00:34:48;;;;;;;1.17;0.82;;;;;;;;;;4977417;28;20510;-66
2023/04/24 00:37:13;;;;;;;1.65;0.85;;;;;;;;;;4980127;28;20466;-66
2023/04/24 00:39:38;;;;;;;1.13;0.80;;;;;;;;;;4995794;28;20048;-66
2023/04/24 00:42:06;;;;;;;0.65;0.63;;;;;;;;;;4993093;28;20041;-66
2023/04/24 00:44:32;;;;;;;0.98;0.70;;;;;;;;;;4988737;28;20030;-66
2023/04/24 00:46:59;;;;;;;0.90;0.80;;;;;;;;;;4989928;28;20406;-66
2023/04/24 00:49:25;;;;;;;1.25;0.77;;;;;;;;;;4975340;28;20120;-66
2023/04/24 00:51:51;;;;;;;1.23;1.00;;;;;;;;;;4996726;28;20125;-66
2023/04/24 00:54:17;;;;;;;1.27;1.17;;;;;;;;;;4987257;28;20068;-66
2023/04/24 00:56:44;;;;;;;0.80;0.70;;;;;;;;;;4985452;28;20121;-66
2023/04/24 00:59:09;;;;;;;1.90;0.90;;;;;;;;;;4985843;28;20036;-66
2023/04/24 01:01:35;;;;;;;0.75;0.70;;;;;;;;;;4996572;28;20120;-66
2023/04/24 01:04:01;;;;;;;1.40;0.50;;;;;;;;;;4978667;28;20118;-66
2023/04/24 01:06:28;;;;;;;1.92;0.85;;;;;;;;;;4977032;28;20492;-66
2023/04/24 01:08:55;;;;;;;2.83;0.75;;;;;;;;;;4985813;28;20054;-66
2023/04/24 01:11:21;;;;;;;1.35;0.70;;;;;;;;;;4991971;28;20091;-66
2023/04/24 01:13:47;;;;;;;1.20;0.73;;;;;;;;;;4996012;28;20030;-66
2023/04/24 01:16:14;;;;;;;0.70;0.70;;;;;;;;;;4978855;28;20069;-66
2023/04/24 01:18:40;;;;;;;0.73;0.60;;;;;;;;;;4978062;28;20037;-66
2023/04/24 01:21:08;;;;;;;1.65;0.68;;;;;;;;;;4967904;28;20061;-66
2023/04/24 01:23:34;;;;;;;0.90;0.80;;;;;;;;;;4992195;28;20064;-66
2023/04/24 01:26:00;;;;;;;0.90;0.80;;;;;;;;;;4987042;28;20038;-66
2023/04/24 01:28:26;;;;;;;0.70;0.70;;;;;;;;;;4994527;28;20041;-66
2023/04/24 01:30:52;;;;;;;1.20;0.75;;;;;;;;;;4968990;28;20049;-66
2023/04/24 01:33:18;;;;;;;1.35;0.70;;;;;;;;;;4992120;28;20095;-66
2023/04/24 01:35:43;;;;;;;1.00;0.80;;;;;;;;;;5004215;28;20029;-66
2023/04/24 01:38:09;;;;;;;1.13;0.90;;;;;;;;;;4984877;28;20042;-65
2023/04/24 01:40:34;;;;;;;0.65;0.60;;;;;;;;;;4985532;28;20029;-66
2023/04/24 01:43:00;;;;;;;0.85;0.70;;;;;;;;;;4985849;28;20036;-66
2023/04/24 01:45:25;;;;;;;2.00;0.80;;;;;;;;;;4973603;28;20561;-66
2023/04/24 01:47:51;;;;;;;2.15;0.82;;;;;;;;;;4993619;28;20046;-66
2023/04/24 01:50:17;;;;;;;1.45;0.70;;;;;;;;;;4989398;28;20789;-66
2023/04/24 01:52:43;;;;;;;1.67;0.85;;;;;;;;;;4989387;28;20096;-66
2023/04/24 01:55:09;;;;;;;1.00;0.75;;;;;;;;;;4986149;28;20030;-66
2023/04/24 01:57:35;;;;;;;0.90;0.70;;;;;;;;;;4995831;28;20034;-66
2023/04/24 02:00:00;;;;;;;2.28;0.88;;;;;;;;;;4974536;28;20072;-66
2023/04/24 02:02:29;;;;;;;1.08;0.70;;;;;;;;;;4987143;28;20042;-66
2023/04/24 02:04:55;;;;;;;1.20;0.77;;;;;;;;;;4985759;28;20046;-66
2023/04/24 02:07:20;;;;;;;1.58;0.85;;;;;;;;;;4998201;28;20033;-66
2023/04/24 02:09:46;;;;;;;1.10;0.70;;;;;;;;;;4995430;28;20045;-66
2023/04/24 02:12:11;;;;;;;0.77;0.60;;;;;;;;;;4975049;28;20132;-66
2023/04/24 02:14:36;;;;;;;1.20;0.70;;;;;;;;;;4981693;28;20041;-66
2023/04/24 02:17:02;;;;;;;0.70;0.55;;;;;;;;;;4985706;28;20136;-66
2023/04/24 02:19:27;;;;;;;0.75;0.70;;;;;;;;;;4987318;28;20513;-65
2023/04/24 02:21:53;;;;;;;2.08;0.77;;;;;;;;;;4992802;28;20119;-66
2023/04/24 02:24:18;;;;;;;1.08;0.80;;;;;;;;;;4989583;28;20053;-66
2023/04/24 02:26:43;;;;;;;0.75;0.60;;;;;;;;;;4967084;28;20430;-66
2023/04/24 02:29:09;;;;;;;1.33;0.77;;;;;;;;;;4987438;28;20140;-66
2023/04/24 02:31:34;;;;;;;1.35;0.80;;;;;;;;;;4994789;28;20571;-66
2023/04/24 02:33:59;;;;;;;0.90;0.60;;;;;;;;;;4991480;28;20039;-66
2023/04/24 02:36:25;;;;;;;0.98;0.70;;;;;;;;;;4991710;28;20120;-66
2023/04/24 02:38:50;;;;;;;0.60;0.60;;;;;;;;;;4978479;28;20060;-66
2023/04/24 02:41:15;;;;;;;1.98;0.73;;;;;;;;;;4988287;28;20045;-66
2023/04/24 02:43:41;;;;;;;0.95;0.70;;;;;;;;;;4966069;28;20462;-66
2023/04/24 02:46:06;;;;;;;1.10;0.70;;;;;;;;;;4991001;28;20044;-66
2023/04/24 02:48:32;;;;;;;1.08;0.80;;;;;;;;;;4986362;28;20034;-66
2023/04/24 02:50:58;;;;;;;3.17;0.90;;;;;;;;;;4998319;28;20556;-66
2023/04/24 02:53:23;;;;;;;2.08;1.10;;;;;;;;;;5001104;28;20151;-66
2023/04/24 02:55:49;;;;;;;1.42;0.95;;;;;;;;;;4968465;28;20510;-67
2023/04/24 02:58:14;;;;;;;0.88;0.88;;;;;;;;;;4987924;28;20057;-66
2023/04/24 03:00:40;;;;;;;1.15;0.93;;;;;;;;;;4987009;28;20096;-66
2023/04/24 03:03:06;;;;;;;1.45;1.10;;;;;;;;;;5002878;28;20044;-66
2023/04/24 03:05:32;;;;;;;3.80;1.10;;;;;;;;;;4994247;28;20442;-66
2023/04/24 03:07:57;;;;;;;1.45;1.00;;;;;;;;;;4989530;28;20045;-66
2023/04/24 03:10:22;;;;;;;1.27;1.00;;;;;;;;;;4971069;28;20145;-66
2023/04/24 03:12:48;;;;;;;1.15;0.90;;;;;;;;;;4996988;28;20045;-66
2023/04/24 03:15:14;;;;;;;2.30;1.08;;;;;;;;;;4994109;28;20041;-66
2023/04/24 03:17:39;;;;;;;1.23;0.93;;;;;;;;;;4989101;28;20038;-66
2023/04/24 03:20:05;;;;;;;1.52;0.85;;;;;;;;;;4989320;28;20044;-66
2023/04/24 03:22:32;;;;;;;1.83;1.00;;;;;;;;;;4991439;28;20052;-66
2023/04/24 03:24:58;;;;;;;1.52;0.90;;;;;;;;;;4983788;28;20057;-66
2023/04/24 03:27:23;;;;;;;1.73;1.23;;;;;;;;;;4992442;28;20042;-66
2023/04/24 03:29:51;;;;;;;1.83;0.80;;;;;;;;;;4976309;28;20033;-66
2023/04/24 03:32:16;;;;;;;2.22;1.27;;;;;;;;;;4987705;28;20045;-66
2023/04/24 03:34:42;;;;;;;1.67;0.90;;;;;;;;;;4981720;28;20026;-66
2023/04/24 03:37:07;;;;;;;1.50;1.08;;;;;;;;;;4997442;28;20033;-66
2023/04/24 03:39:32;;;;;;;1.85;1.20;;;;;;;;;;4975452;28;20467;-66
2023/04/24 03:41:58;;;;;;;3.40;1.17;;;;;;;;;;4995024;28;20033;-66
2023/04/24 03:44:23;;;;;;;2.13;1.30;;;;;;;;;;4993502;28;20076;-66
2023/04/24 03:46:48;;;;;;;0.90;0.80;;;;;;;;;;4985174;28;20049;-66
2023/04/24 03:49:14;;;;;;;1.23;1.00;;;;;;;;;;4992800;28;20052;-66
2023/04/24 03:51:39;;;;;;;1.27;0.93;;;;;;;;;;4984369;28;21263;-66
2023/04/24 03:54:04;;;;;;;1.75;1.20;;;;;;;;;;4978376;28;20048;-66
2023/04/24 03:56:30;;;;;;;1.70;0.90;;;;;;;;;;4992527;28;20029;-66
2023/04/24 03:58:55;;;;;;;1.83;1.30;;;;;;;;;;5004125;28;20033;-66
2023/04/24 04:01:21;;;;;;;4.93;1.30;;;;;;;;;;4988592;28;20495;-66
2023/04/24 04:03:46;;;;;;;2.75;1.40;;;;;;;;;;4987307;28;20541;-66
2023/04/24 04:06:12;;;;;;;1.00;0.93;;;;;;;;;;4971287;28;20686;-65
2023/04/24 04:08:38;;;;;;;1.80;0.88;;;;;;;;;;4995953;28;20045;-66
2023/04/24 04:11:03;;;;;;;2.55;1.20;;;;;;;;;;4994800;28;20030;-65
2023/04/24 04:13:29;;;;;;;1.77;1.20;;;;;;;;;;4983591;28;20037;-65
2023/04/24 04:15:54;;;;;;;1.25;1.05;;;;;;;;;;4985044;28;20057;-65
2023/04/24 04:18:20;;;;;;;2.33;1.27;;;;;;;;;;4994992;28;20045;-66
2023/04/24 04:20:45;;;;;;;1.85;1.13;;;;;;;;;;4977873;28;20038;-65
2023/04/24 04:23:10;;;;;;;2.08;1.27;;;;;;;;;;4986535;28;20117;-65
2023/04/24 04:25:36;;;;;;;2.67;1.23;;;;;;;;;;4985542;28;20576;-65
2023/04/24 04:28:01;;;;;;;1.23;1.02;;;;;;;;;;4983825;28;20929;-65
2023/04/24 04:30:29;;;;;;;1.50;1.10;;;;;;;;;;4997492;28;20034;-66
2023/04/24 04:32:55;;;;;;;0.98;0.85;;;;;;;;;;4992913;28;20138;-65
2023/04/24 04:35:20;;;;;;;1.58;1.30;;;;;;;;;;4965306;28;20113;-65
2023/04/24 04:37:45;;;;;;;1.85;0.90;;;;;;;;;;4990541;28;20076;-65
2023/04/24 04:40:12;;;;;;;3.30;1.30;;;;;;;;;;4999183;28;20033;-65
2023/04/24 04:42:40;;;;;;;2.28;1.27;;;;;;;;;;5004844;28;20049;-65
2023/04/24 04:45:10;;;;;;;1.38;1.00;;;;;;;;;;4990890;28;20499;-65
2023/04/24 04:47:36;;;;;;;1.92;1.02;;;;;;;;;;4979214;28;20137;-66
2023/04/24 04:50:03;;;;;;;1.92;1.13;;;;;;;;;;4976903;28;20102;-65
2023/04/24 04:52:29;;;;;;;2.72;1.10;;;;;;;;;;4993025;28;20436;-65
2023/04/24 04:54:54;;;;;;;1.75;1.13;;;;;;;;;;4987003;28;20047;-65
2023/04/24 04:57:20;;;;;;;1.55;1.02;;;;;;;;;;4983816;28;20128;-65
2023/04/24 04:59:46;;;;;;;3.03;1.15;;;;;;;;;;4985589;28;20033;-65
2023/04/24 05:02:11;;;;;;;1.30;0.90;;;;;;;;;;4967474;28;20033;-65
2023/04/24 05:04:37;;;;;;;4.25;2.13;;;;;;;;;;4989799;28;20050;-65
2023/04/24 05:07:02;;;;;;;2.78;1.25;;;;;;;;;;4982535;28;20804;-65
2023/04/24 05:09:29;;;;;;;1.05;0.85;;;;;;;;;;4981363;28;20568;-65
2023/04/24 05:11:55;;;;;;;3.17;1.05;;;;;;;;;;4973338;28;20431;-65
2023/04/24 05:14:20;;;;;;;1.67;1.00;;;;;;;;;;4983141;28;20048;-65
2023/04/24 05:16:46;;;;;;;1.50;1.10;;;;;;;;;;4969962;28;20216;-65
2023/04/24 05:19:13;;;;;;;3.85;1.20;;;;;;;;;;4988484;28;20042;-65
2023/04/24 05:21:39;;;;;;;1.95;1.13;;;;;;;;;;4992400;28;20045;-65
2023/04/24 05:24:05;;;;;;;1.65;0.80;;;;;;;;;;4996160;28;20041;-66
2023/04/24 05:26:30;;;;;;;2.53;1.10;;;;;;;;;;4984280;28;20045;-65
2023/04/24 05:28:56;;;;;;;1.08;0.77;;;;;;;;;;4988079;28;20568;-65
2023/04/24 05:31:21;;;;;;;1.77;1.00;;;;;;;;;;4963329;28;20056;-67
2023/04/24 05:33:46;;;;;;;2.35;0.82;;;;;;;;;;4983123;28;20037;-77
2023/04/24 05:36:12;;;;;;;1.10;1.00;;;;;;;;;;4990357;28;20091;-65
2023/04/24 05:38:38;;;;;;;1.50;0.90;;;;;;;;;;4983509;28;20406;-66
2023/04/24 05:41:03;;;;;;;1.45;1.15;;;;;;;;;;4985645;28;20049;-65
2023/04/24 05:43:28;;;;;;;1.63;0.95;;;;;;;;;;4990879;28;20068;-66
2023/04/24 05:45:54;;;;;;;1.10;1.00;;;;;;;;;;4977894;28;20655;-65
2023/04/24 05:48:19;;;;;;;2.03;0.93;;;;;;;;;;4984169;28;20418;-66
2023/04/24 05:50:45;;;;;;;1.90;1.10;;;;;;;;;;4990090;28;20033;-66
2023/04/24 05:53:10;;;;;;;1.13;1.02;;;;;;;;;;4994473;28;20307;-66
2023/04/24 05:55:36;;;;;;;1.23;0.80;;;;;;;;;;5000485;28;20041;-65
2023/04/24 05:58:01;;;;;;;1.17;0.80;;;;;;;;;;4990141;28;20477;-65
2023/04/24 06:00:27;;;;;;;2.53;1.00;;;;;;;;;;4981422;28;20062;-65
2023/04/24 06:02:55;;;;;;;3.00;0.90;;;;;;;;;;4996236;28;20128;-66
2023/04/24 06:05:20;;;;;;;1.80;0.80;;;;;;;;;;4996442;28;20037;-66
2023/04/24 06:07:46;;;;;;;1.05;0.63;;;;;;;;;;4998404;28;20609;-66
2023/04/24 06:10:11;;;;;;;0.65;0.50;;;;;;;;;;4984837;28;20053;-66
2023/04/24 06:12:37;;;;;;;1.77;0.95;;;;;;;;;;4971480;28;20046;-66
2023/04/24 06:15:03;;;;;;;0.70;0.70;;;;;;;;;;4973109;28;20046;-66
2023/04/24 06:17:29;;;;;;;2.60;0.80;;;;;;;;;;4987911;28;20045;-66
2023/04/24 06:19:54;;;;;;;1.30;1.10;;;;;;;;;;4991950;28;20035;-66
2023/04/24 06:22:19;;;;;;;0.70;0.70;;;;;;;;;;4990036;28;20112;-66
2023/04/24 06:24:45;;;;;;;1.65;0.60;;;;;;;;;;4988210;28;20522;-66
2023/04/24 06:27:10;;;;;;;1.30;0.88;;;;;;;;;;4972154;28;20029;-66
2023/04/24 06:29:36;;;;;;;1.35;0.75;;;;;;;;;;4996094;28;20437;-66
2023/04/24 06:32:02;;;;;;;2.00;0.90;;;;;;;;;;4990651;28;20133;-66
2023/04/24 06:34:27;;;;;;;1.00;0.73;;;;;;;;;;4993299;28;20034;-66
2023/04/24 06:36:54;;;;;;;2.72;0.88;;;;;;;;;;4991202;28;20057;-66
2023/04/24 06:39:20;;;;;;;1.48;0.80;;;;;;;;;;4997996;28;20058;-66
2023/04/24 06:41:45;;;;;;;1.02;0.77;;;;;;;;;;4975555;28;20476;-66
2023/04/24 06:44:11;;;;;;;0.50;0.50;;;;;;;;;;4990392;28;20558;-66
2023/04/24 06:46:36;;;;;;;1.95;0.75;;;;;;;;;;4970432;28;20081;-67
2023/04/24 06:49:01;;;;;;;0.93;0.70;;;;;;;;;;4992610;28;20057;-67
2023/04/24 06:51:27;;;;;;;1.58;0.82;;;;;;;;;;4989586;28;20037;-66
2023/04/24 06:53:58;;;;;;;2.28;0.90;;;;;;;;;;4991400;28;20499;-67
2023/04/24 06:56:23;;;;;;;0.90;0.63;;;;;;;;;;4971889;28;20715;-67
2023/04/24 06:58:49;;;;;;;0.70;0.60;;;;;;;;;;4985510;28;20046;-66
2023/04/24 07:01:14;;;;;;;1.05;0.93;;;;;;;;;;4990771;28;20077;-67
2023/04/24 07:03:40;;;;;;;1.10;0.80;;;;;;;;;;4990587;28;20117;-67
2023/04/24 07:06:06;;;;;;;1.08;0.80;;;;;;;;;;4972135;28;20563;-66
2023/04/24 07:08:32;;;;;;;0.95;0.82;;;;;;;;;;4985996;28;20063;-67
2023/04/24 07:10:58;;;;;;;1.73;0.80;;;;;;;;;;4984528;28;20049;-67
2023/04/24 07:13:24;;;;;;;1.08;0.75;;;;;;;;;;5002252;28;20239;-66
2023/04/24 07:15:50;;;;;;;1.65;0.90;;;;;;;;;;4989023;28;20582;-67
2023/04/24 07:18:16;;;;;;;1.30;0.90;;;;;;;;;;4988690;28;20124;-67
2023/04/24 07:20:42;;;;;;;1.23;0.90;;;;;;;;;;4985023;28;21240;-67
2023/04/24 07:23:07;;;;;;;1.00;0.90;;;;;;;;;;4975009;28;20095;-67
2023/04/24 07:25:33;;;;;;;1.20;0.82;;;;;;;;;;4995228;28;20613;-67
2023/04/24 07:27:58;;;;;;;1.20;0.80;;;;;;;;;;4993456;28;20092;-67
2023/04/24 07:30:24;;;;;;;0.95;0.88;;;;;;;;;;4985207;28;20076;-67
2023/04/24 07:32:50;;;;;;;0.98;0.80;;;;;;;;;;4993362;28;20124;-67
2023/04/24 07:35:15;;;;;;;1.20;0.80;;;;;;;;;;4992006;28;20043;-67
2023/04/24 07:37:45;;;;;;;1.17;0.90;;;;;;;;;;4954220;28;20037;-67
2023/04/24 07:40:14;;;;;;;1.25;0.80;;;;;;;;;;4982718;28;20711;-67
2023/04/24 07:42:39;;;;;;;0.70;0.70;;;;;;;;;;4975365;28;20042;-67
2023/04/24 07:45:05;;;;;;;0.95;0.77;;;;;;;;;;4988999;28;20564;-67
2023/04/24 07:47:32;;;;;;;1.55;1.08;;;;;;;;;;4958783;28;20073;-67
2023/04/24 07:49:57;;;;;;;1.65;0.85;;;;;;;;;;4970954;28;20074;-67
2023/04/24 07:52:23;;;;;;;0.82;0.80;;;;;;;;;;4962225;28;20507;-67
2023/04/24 07:54:49;;;;;;;1.77;0.93;;;;;;;;;;4983229;28;20538;-67
2023/04/24 07:57:18;;;;;;;1.25;0.90;;;;;;;;;;4970241;28;20046;-67
2023/04/24 07:59:43;;;;;;;7.20;1.55;;;;;;;;;;4978385;28;20104;-67
2023/04/24 08:02:09;;;;;;;6.65;2.15;;;;;;;;;;4984848;28;20493;-67
2023/04/24 08:04:35;;;;;;;1.73;1.23;;;;;;;;;;4952313;28;20676;-67
2023/04/24 08:07:00;;;;;;;1.60;1.10;;;;;;;;;;4972307;28;20045;-67
2023/04/24 08:09:25;;;;;;;7.13;1.23;;;;;;;;;;4990867;28;20119;-67
2023/04/24 08:11:51;;;;;;;1.20;1.10;;;;;;;;;;4983748;28;20054;-67
2023/04/24 08:14:16;;;;;;;2.53;1.40;;;;;;;;;;4994720;28;20065;-67
2023/04/24 08:16:41;;;;;;;1.95;1.13;;;;;;;;;;4983652;28;20568;-67
2023/04/24 08:19:07;;;;;;;1.95;1.27;;;;;;;;;;4960615;28;20549;-67
2023/04/24 08:21:32;;;;;;;2.17;1.30;;;;;;;;;;4985638;28;20418;-67
2023/04/24 08:23:58;;;;;;;1.60;1.08;;;;;;;;;;4989447;28;20042;-67
2023/04/24 08:26:23;;;;;;;1.15;0.90;;;;;;;;;;4990151;28;20048;-67
2023/04/24 08:28:49;;;;;;;4.25;1.40;;;;;;;;;;4992131;28;20044;-67
2023/04/24 08:31:14;;;;;;;2.17;1.98;;;;;;;;;;4986202;28;20057;-67
2023/04/24 08:33:40;;;;;;;0.85;0.80;;;;;;;;;;4971605;28;20041;-67
2023/04/24 08:36:07;;;;;;;1.73;1.25;;;;;;;;;;4991727;28;20045;-67
2023/04/24 08:38:33;;;;;;;2.10;1.08;;;;;;;;;;4988762;28;20058;-67
2023/04/24 08:41:00;;;;;;;5.63;1.40;;;;;;;;;;4990810;28;20041;-67
2023/04/24 08:43:26;;;;;;;1.20;1.08;;;;;;;;;;4991226;28;20040;-67
2023/04/24 08:45:52;;;;;;;1.23;1.10;;;;;;;;;;4968974;28;20155;-67
2023/04/24 08:48:18;;;;;;;3.13;1.10;;;;;;;;;;4955900;28;20114;-67
2023/04/24 08:50:44;;;;;;;3.45;1.02;;;;;;;;;;4983519;28;20250;-67
2023/04/24 08:53:10;;;;;;;2.10;1.15;;;;;;;;;;4996849;28;20042;-67
2023/04/24 08:55:37;;;;;;;2.13;1.23;;;;;;;;;;4991462;28;20183;-67
2023/04/24 08:58:03;;;;;;;3.30;1.10;;;;;;;;;;4987644;28;20041;-67
2023/04/24 09:00:29;;;;;;;1.83;1.17;;;;;;;;;;4974753;28;20061;-67
2023/04/24 09:02:55;;;;;;;1.60;1.10;;;;;;;;;;4985056;28;20458;-67
2023/04/24 09:05:22;;;;;;;1.98;1.30;;;;;;;;;;4988558;28;20514;-67
2023/04/24 09:07:55;;;;;;;2.08;1.20;;;;;;;;;;4991715;28;20034;-67
2023/04/24 09:10:22;;;;;;;2.15;1.27;;;;;;;;;;4986243;28;20038;-67
2023/04/24 09:12:49;;;;;;;1.35;1.17;;;;;;;;;;4994210;28;20798;-67
2023/04/24 09:15:15;;;;;;;1.88;0.95;;;;;;;;;;4956091;28;20058;-67
2023/04/24 09:17:40;;;;;;;2.35;1.33;;;;;;;;;;4994058;28;20037;-67
2023/04/24 09:20:06;;;;;;;2.75;1.80;;;;;;;;;;4970996;28;20053;-67
2023/04/24 09:22:31;;;;;;;2.97;1.20;;;;;;;;;;4988214;28;20509;-67
2023/04/24 09:25:06;;;;;;;1.60;1.40;;;;;;;;;;4989929;28;20042;-67
2023/04/24 09:27:35;;;;;;;2.38;1.30;;;;;;;;;;4964711;28;20034;-67
2023/04/24 09:30:01;;;;;;;1.92;1.45;;;;;;;;;;4994804;28;20037;-67
2023/04/24 09:32:28;;;;;;;2.00;1.58;;;;;;;;;;4987697;28;20038;-67
2023/04/24 09:35:10;;;;;;;2.85;1.52;;;;;;;;;;5000760;28;20047;-67
2023/04/24 09:37:41;;;;;;;2.25;1.50;;;;;;;;;;4983896;28;20089;-67
2023/04/24 09:40:19;;;;;;;2.60;1.60;;;;;;;;;;4970230;28;20146;-67
2023/04/24 09:43:02;;;;;;;2.97;1.30;;;;;;;;;;4992437;28;20041;-67
2023/04/24 09:45:34;;;;;;;3.00;1.70;;;;;;;;;;4990439;28;20544;-67
2023/04/24 09:48:00;;;;;;;3.65;1.50;;;;;;;;;;4985660;28;20136;-67
2023/04/24 09:50:25;;;;;;;2.13;1.55;;;;;;;;;;4950044;28;20654;-67
2023/04/24 09:52:58;;;;;;;3.47;1.60;;;;;;;;;;4998253;28;20046;-67
2023/04/24 09:55:25;;;;;;;6.05;2.20;;;;;;;;;;4993566;28;20063;-68
2023/04/24 09:57:54;;;;;;;2.65;1.75;;;;;;;;;;4992482;28;20049;-67
2023/04/24 10:00:30;;;;;;;10.80;1.73;;;;;;;;;;4986308;28;20123;-68
2023/04/24 10:03:03;;;;;;;2.67;1.55;;;;;;;;;;4954954;28;20050;-68
2023/04/24 10:05:30;;;;;;;2.60;1.23;;;;;;;;;;4986990;28;20068;-67
2023/04/24 10:08:13;;;;;;;2.63;1.50;;;;;;;;;;4986527;28;20045;-68
2023/04/24 10:10:43;;;;;;;2.22;1.50;;;;;;;;;;4975059;28;20042;-68
2023/04/24 10:13:10;;;;;;;1.58;1.40;;;;;;;;;;4969009;28;20041;-67
2023/04/24 10:15:37;;;;;;;2.40;1.70;;;;;;;;;;4989235;28;20059;-67
2023/04/24 10:18:06;;;;;;;4.30;1.70;;;;;;;;;;4978607;28;20062;-67
2023/04/24 10:20:32;;;;;;;2.47;1.55;;;;;;;;;;4980766;28;20053;-68
2023/04/24 10:22:58;;;;;;;3.22;1.50;;;;;;;;;;4980979;28;20647;-67
2023/04/24 10:25:28;;;;;;;2.03;1.52;;;;;;;;;;4981418;28;20123;-68
2023/04/24 10:27:59;;;;;;;1.90;0.70;;;;;;;;;;4961129;28;20725;-67
2023/04/24 10:30:26;;;;;;;4.45;1.45;;;;;;;;;;4975942;28;20077;-68
2023/04/24 10:32:52;;;;;;;39.58;4.85;;;;;;;;;;4978215;28;20053;-67
2023/04/24 10:35:19;;;;;;;4.93;1.90;;;;;;;;;;4980432;28;20152;-68
2023/04/24 10:38:07;;;;;;;3.63;1.58;;;;;;;;;;4987122;28;20037;-67
2023/04/24 10:40:35;;;;;;;1.98;1.42;;;;;;;;;;4927547;28;20062;-67
2023/04/24 10:43:07;;;;;;;2.25;1.60;;;;;;;;;;4989305;28;20038;-68
2023/04/24 10:45:33;;;;;;;2.42;1.52;;;;;;;;;;4983133;28;20458;-68
2023/04/24 10:48:03;;;;;;;2.08;1.70;;;;;;;;;;4984925;28;20044;-67
2023/04/24 10:50:42;;;;;;;2.80;1.85;;;;;;;;;;4978803;28;20091;-67
2023/04/24 10:53:12;;;;;;;4.57;1.80;;;;;;;;;;4947703;28;20050;-67
2023/04/24 10:55:49;;;;;;;3.35;1.60;;;;;;;;;;4967899;28;20049;-68
2023/04/24 10:58:16;;;;;;;1.13;0.98;;;;;;;;;;4972899;28;20149;-68
2023/04/24 11:00:44;;;;;;;2.30;1.60;;;;;;;;;;4967310;28;20045;-69
2023/04/24 11:03:32;;;;;;;2.50;1.48;;;;;;;;;;4977465;28;21509;-69
2023/04/24 11:06:06;;;;;;;2.20;1.42;;;;;;;;;;4974294;28;20051;-66
2023/04/24 11:08:45;;;;;;;3.70;2.00;;;;;;;;;;4984590;28;20554;-67
2023/04/24 11:11:13;;;;;;;4.07;2.15;;;;;;;;;;4983453;28;20030;-67
2023/04/24 11:13:54;;;;;;;3.50;1.90;;;;;;;;;;4985571;28;20026;-66
2023/04/24 11:16:28;;;;;;;3.05;1.70;;;;;;;;;;4947227;28;20051;-66
2023/04/24 11:19:05;;;;;;;2.20;1.42;;;;;;;;;;4975947;28;20046;-67
2023/04/24 11:21:38;;;;;;;1.63;1.27;;;;;;;;;;4976944;28;20413;-66
2023/04/24 11:24:32;;;;;;;2.08;1.40;;;;;;;;;;4983064;28;20045;-67
2023/04/24 11:27:16;;;;;;;1.35;1.10;;;;;;;;;;4949923;28;20055;-66
2023/04/24 11:29:59;;;;;;;4.22;1.30;;;;;;;;;;4962759;28;20830;-66
2023/04/24 11:32:32;;;;;;;1.73;0.95;;;;;;;;;;4957142;28;20053;-66
2023/04/24 11:35:01;;;;;;;1.35;0.95;;;;;;;;;;4968328;28;20133;-67
2023/04/24 11:37:30;;;;;;;2.30;1.08;;;;;;;;;;4984610;28;20045;-66
2023/04/24 11:39:57;;;;;;;4.43;1.02;;;;;;;;;;4982194;28;20526;-66
2023/04/24 11:42:23;;;;;;;1.35;1.02;;;;;;;;;;4980777;28;20061;-66
2023/04/24 11:44:51;;;;;;;1.30;1.00;;;;;;;;;;4986429;28;20076;-66
2023/04/24 11:47:17;;;;;;;1.60;1.05;;;;;;;;;;4990997;28;20451;-66
2023/04/24 11:49:42;;;;;;;1.65;1.10;;;;;;;;;;4964146;28;20076;-66
2023/04/24 11:52:08;;;;;;;1.65;1.17;;;;;;;;;;4973927;28;20762;-66
2023/04/24 11:54:33;;;;;;;3.78;1.20;;;;;;;;;;4958963;28;20470;-66
2023/04/24 11:56:59;;;;;;;1.63;1.00;;;;;;;;;;4986015;28;20076;-66
2023/04/24 11:59:26;;;;;;;1.13;1.00;;;;;;;;;;4975995;28;20100;-66
2023/04/24 12:01:51;;;;;;;1.48;0.95;;;;;;;;;;4971328;28;20041;-67
2023/04/24 12:04:18;;;;;;;1.45;1.25;;;;;;;;;;4974684;28;20499;-66
2023/04/24 12:06:59;;;;;;;2.53;0.90;;;;;;;;;;4989510;28;20037;-66
2023/04/24 12:09:25;;;;;;;1.25;0.80;;;;;;;;;;4988010;28;20065;-66
2023/04/24 12:11:58;;;;;;;0.85;0.80;;;;;;;;;;4984188;28;20654;-66
2023/04/24 12:14:24;;;;;;;1.17;0.88;;;;;;;;;;4972554;28;20038;-66
2023/04/24 12:16:50;;;;;;;1.13;0.80;;;;;;;;;;4945030;28;20054;-67
2023/04/24 12:19:21;;;;;;;1.20;0.90;;;;;;;;;;4972132;28;20499;-67
2023/04/24 12:21:59;;;;;;;1.00;0.80;;;;;;;;;;4981033;28;20064;-67
2023/04/24 12:24:25;;;;;;;13.88;2.80;;;;;;;;;;4985948;28;21263;-68
2023/04/24 12:26:50;;;;;;;2.42;1.10;;;;;;;;;;4973455;28;20045;-68
2023/04/24 12:29:23;;;;;;;1.35;1.02;;;;;;;;;;4976542;28;20046;-68
2023/04/24 12:31:48;;;;;;;0.75;0.75;;;;;;;;;;4982817;28;20112;-68
2023/04/24 12:34:21;;;;;;;1.25;1.13;;;;;;;;;;4986905;28;20673;-68
2023/04/24 12:36:48;;;;;;;1.63;1.10;;;;;;;;;;4983477;28;20033;-67
2023/04/24 12:39:18;;;;;;;4.05;1.23;;;;;;;;;;4970393;28;20030;-67
2023/04/24 12:42:01;;;;;;;1.02;0.93;;;;;;;;;;4966748;28;20034;-68
2023/04/24 12:44:34;;;;;;;1.55;0.90;;;;;;;;;;4961769;28;20108;-68
2023/04/24 12:47:00;;;;;;;2.28;0.80;;;;;;;;;;4984396;28;20053;-67
2023/04/24 12:49:26;;;;;;;0.85;0.60;;;;;;;;;;4980969;28;20088;-67
2023/04/24 12:51:51;;;;;;;0.73;0.55;;;;;;;;;;4969531;28;20045;-68
2023/04/24 12:54:16;;;;;;;2.13;0.80;;;;;;;;;;4988795;28;20113;-67
2023/04/24 12:56:42;;;;;;;1.98;0.73;;;;;;;;;;4972603;28;20114;-67
2023/04/24 12:59:07;;;;;;;0.75;0.60;;;;;;;;;;4982464;28;20042;-67
2023/04/24 13:01:32;;;;;;;0.70;0.60;;;;;;;;;;4980050;28;20073;-67
2023/04/24 13:03:58;;;;;;;0.60;0.57;;;;;;;;;;4988477;28;21055;-67
2023/04/24 13:06:23;;;;;;;0.70;0.63;;;;;;;;;;4960150;28;20445;-67
2023/04/24 13:08:49;;;;;;;1.48;0.70;;;;;;;;;;4977478;28;20038;-68
2023/04/24 13:11:14;;;;;;;1.58;0.60;;;;;;;;;;4968813;28;20049;-67
2023/04/24 13:13:40;;;;;;;1.60;0.50;;;;;;;;;;4978448;28;20042;-68
2023/04/24 13:16:05;;;;;;;0.65;0.45;;;;;;;;;;4966623;28;20052;-68
2023/04/24 13:18:31;;;;;;;0.35;0.35;;;;;;;;;;4978028;28;20121;-68
2023/04/24 13:20:56;;;;;;;0.57;0.45;;;;;;;;;;4978105;28;20124;-67
2023/04/24 13:23:23;;;;;;;0.38;0.38;;;;;;;;;;4985690;28;20099;-68
2023/04/24 13:25:49;;;;;;;0.30;0.30;;;;;;;;;;4975111;28;20070;-68
2023/04/24 13:28:14;;;;;;;0.47;0.40;;;;;;;;;;4986422;28;20533;-67
2023/04/24 13:30:40;;;;;;;6.75;0.90;;;;;;;;;;4981989;28;20042;-67
2023/04/24 13:33:05;;;;;;;0.25;0.25;;;;;;;;;;4962547;28;20030;-67
2023/04/24 13:35:31;;;;;;;0.38;0.30;;;;;;;;;;4980793;28;20407;-67
2023/04/24 13:37:57;;;;;;;0.43;0.22;;;;;;;;;;4987550;28;20041;-67
2023/04/24 13:40:23;;;;;;;0.40;0.40;;;;;;;;;;4973133;28;20045;-67
2023/04/24 13:42:48;;;;;;;0.30;0.30;;;;;;;;;;4980386;28;20100;-67
2023/04/24 13:45:14;;;;;;;0.55;0.40;;;;;;;;;;4970708;28;20046;-67
2023/04/24 13:47:40;;;;;;;0.30;0.30;;;;;;;;;;4971364;28;20038;-67
2023/04/24 13:50:08;;;;;;;0.38;0.38;;;;;;;;;;4972685;28;20066;-67
2023/04/24 13:52:33;;;;;;;0.30;0.30;;;;;;;;;;4974816;28;20545;-67
2023/04/24 13:54:59;;;;;;;0.30;0.30;;;;;;;;;;4980124;28;20052;-67
2023/04/24 13:57:24;;;;;;;0.65;0.47;;;;;;;;;;4981375;28;20033;-67
2023/04/24 13:59:50;;;;;;;0.38;0.38;;;;;;;;;;4990367;28;20034;-67
2023/04/24 14:02:15;;;;;;;0.47;0.47;;;;;;;;;;4968350;28;20904;-66
2023/04/24 14:04:40;;;;;;;0.30;0.30;;;;;;;;;;4987253;28;20479;-67
2023/04/24 14:07:07;;;;;;;6.13;0.60;;;;;;;;;;4971926;28;20065;-67
2023/04/24 14:09:32;;;;;;;0.57;0.40;;;;;;;;;;4974383;28;20536;-67
2023/04/24 14:11:58;;;;;;;0.30;0.30;;;;;;;;;;4991678;28;20128;-66
2023/04/24 14:14:23;;;;;;;0.20;0.20;;;;;;;;;;4980802;28;20030;-66
2023/04/24 14:16:48;;;;;;;0.20;0.20;;;;;;;;;;4987019;28;20121;-67
2023/04/24 14:19:14;;;;;;;0.15;0.15;;;;;;;;;;4992379;28;20041;-66
2023/04/24 14:21:39;;;;;;;0.20;0.20;;;;;;;;;;4976629;28;20549;-67
2023/04/24 14:24:05;;;;;;;0.30;0.30;;;;;;;;;;4987286;28;20057;-67
2023/04/24 14:26:30;;;;;;;0.40;0.25;;;;;;;;;;4989903;28;20458;-66
2023/04/24 14:28:58;;;;;;;0.88;0.40;;;;;;;;;;4963411;28;20042;-67
2023/04/24 14:31:24;;;;;;;0.30;0.30;;;;;;;;;;4983091;28;20525;-67
2023/04/24 14:33:49;;;;;;;1.05;0.40;;;;;;;;;;4993130;28;20034;-67
2023/04/24 14:36:14;;;;;;;1.50;0.45;;;;;;;;;;4977806;28;20042;-66
2023/04/24 14:38:40;;;;;;;0.30;0.30;;;;;;;;;;4988865;28;20116;-67
2023/04/24 14:41:09;;;;;;;0.38;0.38;;;;;;;;;;4980977;28;20041;-67